Time;durP1;ratioP1;P1;durP2;ratioP2;P2;SDS_P1;SDS_P2;PMS_P1;PMS_P2;Temp;Humidity;BMP_temperature;BMP_pressure;BME280_temperature;BME280_humidity;BME280_pressure;Samples;Min_cycle;Max_cycle;Signal;HPM_P1;HPM_P2
2021/05/15 00:00:28;;;;;;;5.70;4.30;;;;;;;13.13;71.76;99942.41;5064984;28;20255;-76
2021/05/15 00:02:55;;;;;;;6.47;4.73;;;;;;;13.15;71.34;99941.25;5070936;28;20233;-75
2021/05/15 00:05:22;;;;;;;7.63;4.83;;;;;;;13.20;71.17;99936.38;5066340;28;20207;-76
2021/05/15 00:07:49;;;;;;;5.90;3.73;;;;;;;13.24;72.07;99940.47;5063134;28;20227;-76
2021/05/15 00:10:16;;;;;;;4.90;3.80;;;;;;;12.91;71.94;99884.22;5064193;28;20309;-76
2021/05/15 00:12:43;;;;;;;6.87;4.80;;;;;;;13.26;71.13;99926.84;5060673;28;20238;-76
2021/05/15 00:15:11;;;;;;;6.23;4.33;;;;;;;13.24;71.29;99928.84;5063376;28;20204;-76
2021/05/15 00:17:38;;;;;;;3.77;3.10;;;;;;;13.22;71.43;99926.28;5063634;28;20202;-76
2021/05/15 00:20:10;;;;;;;7.57;5.67;;;;;;;13.20;71.67;99927.41;5063253;28;20225;-76
2021/05/15 00:22:37;;;;;;;4.63;3.93;;;;;;;12.96;71.12;99880.13;5062743;28;20205;-75
2021/05/15 00:25:04;;;;;;;6.17;2.93;;;;;;;13.16;71.85;99921.41;5066134;28;20277;-76
2021/05/15 00:27:31;;;;;;;7.33;4.37;;;;;;;13.12;72.61;99924.53;5063227;28;20716;-75
2021/05/15 00:29:57;;;;;;;4.77;3.40;;;;;;;13.12;72.24;99919.13;5066735;28;20207;-76
2021/05/15 00:32:24;;;;;;;6.53;3.40;;;;;;;12.92;72.98;99908.34;5063722;28;20678;-75
2021/05/15 00:34:51;;;;;;;4.03;2.90;;;;;;;13.04;71.53;99922.53;5068874;28;20194;-75
2021/05/15 00:37:18;;;;;;;4.17;2.90;;;;;;;13.05;71.04;99932.31;5066413;28;20247;-75
2021/05/15 00:39:45;;;;;;;3.60;2.67;;;;;;;12.99;70.13;99914.03;5075012;28;20233;-75
2021/05/15 00:42:11;;;;;;;4.47;3.20;;;;;;;12.97;70.65;99918.69;5070344;28;20285;-75
2021/05/15 00:44:44;;;;;;;3.10;2.50;;;;;;;12.76;71.03;99894.53;5066405;28;20298;-75
2021/05/15 00:47:16;;;;;;;4.17;2.80;;;;;;;12.90;71.13;99920.25;5069748;28;20735;-75
2021/05/15 00:49:43;;;;;;;3.50;2.63;;;;;;;12.70;71.23;99900.50;5070449;28;20284;-75
2021/05/15 00:52:10;;;;;;;5.30;2.97;;;;;;;12.58;71.18;99883.59;5068590;28;20198;-75
2021/05/15 00:54:39;;;;;;;6.17;3.10;;;;;;;12.80;71.73;99912.13;5068305;28;20606;-75
2021/05/15 00:57:08;;;;;;;4.67;3.30;;;;;;;12.78;71.84;99910.56;5068956;28;20630;-74
2021/05/15 00:59:35;;;;;;;7.47;3.47;;;;;;;12.72;72.11;99914.69;5066966;28;20208;-74
2021/05/15 01:02:01;;;;;;;4.00;2.90;;;;;;;12.51;71.41;99874.34;5068658;28;20210;-75
2021/05/15 01:04:28;;;;;;;5.27;3.40;;;;;;;12.66;72.67;99908.00;5074184;28;20280;-74
2021/05/15 01:06:54;;;;;;;5.53;3.67;;;;;;;12.62;72.49;99901.19;5069386;28;20314;-74
2021/05/15 01:09:21;;;;;;;5.83;3.23;;;;;;;12.59;72.68;99906.84;5067698;28;20638;-74
2021/05/15 01:11:49;;;;;;;6.20;3.90;;;;;;;12.51;73.70;99903.97;5069753;28;20328;-74
2021/05/15 01:14:15;;;;;;;6.17;3.70;;;;;;;12.46;73.78;99895.47;5069046;28;20198;-74
2021/05/15 01:16:42;;;;;;;5.67;3.20;;;;;;;12.45;74.25;99899.13;5068931;28;20212;-74
2021/05/15 01:19:09;;;;;;;4.60;3.20;;;;;;;12.41;73.89;99900.41;5066721;28;20207;-74
2021/05/15 01:21:37;;;;;;;4.77;3.43;;;;;;;12.40;73.78;99902.25;5068222;28;20730;-75
2021/05/15 01:24:05;;;;;;;4.83;3.20;;;;;;;12.33;74.92;99897.56;5068140;28;20224;-74
2021/05/15 01:26:33;;;;;;;6.00;3.97;;;;;;;12.34;74.93;99896.56;5067911;28;20198;-75
2021/05/15 01:29:03;;;;;;;6.57;3.50;;;;;;;12.31;75.03;99895.00;5069669;28;20774;-75
2021/05/15 01:31:30;;;;;;;5.17;3.50;;;;;;;12.31;74.76;99895.00;5068000;28;20287;-75
2021/05/15 01:33:56;;;;;;;6.47;3.80;;;;;;;11.97;74.64;99840.59;5066918;28;20294;-74
2021/05/15 01:36:23;;;;;;;5.03;3.57;;;;;;;12.19;75.60;99895.22;5065844;28;20210;-74
2021/05/15 01:38:51;;;;;;;4.40;3.37;;;;;;;12.13;76.03;99892.06;5067604;28;20290;-73
2021/05/15 01:41:19;;;;;;;6.33;3.50;;;;;;;12.15;75.45;99893.78;5079576;28;20563;-75
2021/05/15 01:43:47;;;;;;;3.57;2.90;;;;;;;12.15;75.22;99893.78;5067020;28;20198;-74
2021/05/15 01:46:13;;;;;;;4.67;3.27;;;;;;;11.82;75.27;99837.41;5067936;28;20285;-75
2021/05/15 01:48:41;;;;;;;6.30;3.23;;;;;;;12.10;75.86;99884.28;5065889;28;20227;-75
2021/05/15 01:51:10;;;;;;;4.60;3.23;;;;;;;11.89;75.95;99863.78;5084676;28;20217;-76
2021/05/15 01:53:38;;;;;;;5.50;3.70;;;;;;;11.92;76.23;99869.72;5066974;28;20203;-70
2021/05/15 01:56:08;;;;;;;4.63;3.00;;;;;;;11.99;75.98;99888.91;5074854;28;20240;-70
2021/05/15 01:58:35;;;;;;;5.50;3.30;;;;;;;12.03;75.76;99883.13;5067334;28;20202;-70
2021/05/15 02:01:02;;;;;;;6.97;3.40;;;;;;;12.02;75.94;99886.78;5072883;28;20229;-70
2021/05/15 02:03:29;;;;;;;9.97;3.77;;;;;;;12.02;76.42;99889.50;5070823;28;20468;-71
2021/05/15 02:05:56;;;;;;;4.27;3.17;;;;;;;12.00;76.08;99886.09;5076452;28;20696;-70
2021/05/15 02:08:22;;;;;;;6.47;3.40;;;;;;;11.66;75.91;99828.97;5077210;28;20615;-71
2021/05/15 02:10:50;;;;;;;4.87;3.13;;;;;;;11.97;76.84;99883.66;5066886;28;20645;-70
2021/05/15 02:13:19;;;;;;;221.93;148.37;;;;;;;11.98;76.30;99879.97;5064719;28;20458;-70
2021/05/15 02:15:47;;;;;;;118.33;50.70;;;;;;;11.97;76.18;99874.75;5079386;28;20201;-70
2021/05/15 02:18:14;;;;;;;9.43;5.83;;;;;;;11.93;76.97;99876.81;5079923;28;20201;-70
2021/05/15 02:20:41;;;;;;;8.93;5.47;;;;;;;11.94;76.82;99873.16;5067156;28;20213;-71
2021/05/15 02:23:09;;;;;;;7.70;4.60;;;;;;;11.95;76.95;99874.03;5079165;28;20201;-71
2021/05/15 02:25:35;;;;;;;6.47;4.53;;;;;;;11.95;77.15;99871.34;5065656;28;20589;-70
2021/05/15 02:28:02;;;;;;;9.03;6.33;;;;;;;11.99;77.40;99880.84;5079368;28;20622;-70
2021/05/15 02:30:30;;;;;;;9.20;6.40;;;;;;;12.02;77.27;99873.34;5071229;28;20629;-70
2021/05/15 02:32:56;;;;;;;8.00;5.20;;;;;;;11.80;76.77;99833.16;5065303;28;20205;-71
2021/05/15 02:35:23;;;;;;;5.80;3.47;;;;;;;11.99;77.00;99859.31;5067444;28;20193;-70
2021/05/15 02:37:51;;;;;;;10.83;8.83;;;;;;;12.08;76.96;99870.09;5068325;28;20208;-75
2021/05/15 02:40:18;;;;;;;6.10;3.77;;;;;;;12.06;76.61;99861.31;5073900;28;20209;-75
2021/05/15 02:42:45;;;;;;;7.63;4.80;;;;;;;12.08;77.09;99869.25;5072005;28;20200;-75
2021/05/15 02:45:13;;;;;;;4.93;3.97;;;;;;;12.06;76.62;99864.00;5072469;28;20954;-75
2021/05/15 02:47:41;;;;;;;14.83;11.47;;;;;;;11.68;77.07;99810.84;5066321;28;20561;-75
2021/05/15 02:50:09;;;;;;;6.67;4.13;;;;;;;12.02;78.19;99865.28;5074875;28;20307;-76
2021/05/15 02:52:36;;;;;;;6.90;3.50;;;;;;;12.01;77.67;99863.56;5061436;28;20228;-75
2021/05/15 02:55:03;;;;;;;4.63;3.23;;;;;;;12.00;77.22;99853.78;5063052;28;20247;-75
2021/05/15 02:57:30;;;;;;;4.43;2.97;;;;;;;11.96;77.22;99860.44;5075496;28;20778;-75
2021/05/15 02:59:56;;;;;;;4.57;3.20;;;;;;;11.91;77.58;99862.66;5065340;28;20205;-75
2021/05/15 03:02:22;;;;;;;5.03;3.40;;;;;;;11.91;77.10;99854.56;5065767;28;20642;-75
2021/05/15 03:04:50;;;;;;;4.87;3.03;;;;;;;11.87;77.14;99849.59;5064786;28;20228;-75
2021/05/15 03:07:16;;;;;;;3.87;3.00;;;;;;;11.87;77.19;99847.75;5066739;28;20201;-75
2021/05/15 03:09:44;;;;;;;7.33;3.63;;;;;;;11.90;77.33;99850.19;5066015;28;20667;-76
2021/05/15 03:12:11;;;;;;;3.93;2.77;;;;;;;11.91;76.76;99848.34;5065782;28;20349;-75
2021/05/15 03:14:37;;;;;;;7.70;3.43;;;;;;;11.91;77.20;99838.44;5065798;28;20273;-75
2021/05/15 03:17:04;;;;;;;4.43;3.00;;;;;;;11.93;76.48;99838.28;5065765;28;20836;-76
2021/05/15 03:19:30;;;;;;;11.27;3.03;;;;;;;11.96;76.69;99844.28;5073744;28;20206;-75
2021/05/15 03:21:58;;;;;;;5.33;3.20;;;;;;;11.97;77.01;99839.75;5073945;28;20509;-76
2021/05/15 03:24:24;;;;;;;4.87;2.90;;;;;;;11.99;76.52;99841.31;5065491;28;20285;-76
2021/05/15 03:26:50;;;;;;;7.90;2.80;;;;;;;12.01;76.14;99835.81;5066370;28;20209;-75
2021/05/15 03:29:17;;;;;;;4.53;2.93;;;;;;;12.03;76.60;99840.06;5066667;28;20242;-75
2021/05/15 03:31:43;;;;;;;4.57;3.00;;;;;;;12.03;76.27;99842.75;5073827;28;20229;-76
2021/05/15 03:34:10;;;;;;;5.67;3.40;;;;;;;11.99;75.96;99830.56;5066153;28;20822;-75
2021/05/15 03:36:36;;;;;;;3.80;2.87;;;;;;;11.87;76.06;99818.16;5061002;28;20201;-76
2021/05/15 03:39:04;;;;;;;4.60;3.23;;;;;;;11.88;76.34;99819.88;5065442;28;20568;-75
2021/05/15 03:41:31;;;;;;;5.23;3.00;;;;;;;11.97;76.56;99840.59;5065068;28;20204;-75
2021/05/15 03:43:58;;;;;;;4.60;3.20;;;;;;;11.95;76.10;99842.59;5064754;28;20250;-75
2021/05/15 03:46:24;;;;;;;4.07;2.87;;;;;;;11.96;76.29;99838.91;5063749;28;20203;-75
2021/05/15 03:48:51;;;;;;;5.03;3.37;;;;;;;11.99;76.45;99843.16;5065874;28;20269;-70
2021/05/15 03:51:18;;;;;;;7.70;3.67;;;;;;;12.00;76.09;99845.72;5064833;28;20911;-70
2021/05/15 03:53:44;;;;;;;6.03;3.40;;;;;;;12.01;76.34;99841.19;5052465;28;20673;-70
2021/05/15 03:56:11;;;;;;;4.47;3.10;;;;;;;11.99;76.22;99830.56;5065482;28;20207;-75
2021/05/15 03:58:38;;;;;;;4.90;3.50;;;;;;;12.03;76.89;99837.38;5081541;28;20225;-76
2021/05/15 04:01:04;;;;;;;5.30;3.40;;;;;;;12.03;76.59;99839.22;5073272;28;20586;-75
2021/05/15 04:03:31;;;;;;;3.63;2.80;;;;;;;12.05;76.48;99846.16;5063015;28;20473;-76
2021/05/15 04:05:57;;;;;;;7.57;3.73;;;;;;;11.94;77.93;99846.25;5064364;28;20209;-75
2021/05/15 04:08:24;;;;;;;5.77;3.40;;;;;;;11.80;77.41;99815.19;5066037;28;20241;-76
2021/05/15 04:10:50;;;;;;;9.27;3.40;;;;;;;11.90;78.13;99844.81;5064695;28;20205;-76
2021/05/15 04:13:25;;;;;;;6.20;2.93;;;;;;;11.77;79.45;99845.00;5075306;28;20241;-76
2021/05/15 04:15:58;;;;;;;5.20;2.67;;;;;;;11.75;78.60;99841.59;5058901;28;20196;-76
2021/05/15 04:18:28;;;;;;;4.07;3.00;;;;;;;11.67;79.30;99816.38;5051361;28;20219;-76
2021/05/15 04:20:55;;;;;;;5.77;3.30;;;;;;;11.67;79.24;99844.09;5064536;28;20216;-75
2021/05/15 04:23:22;;;;;;;3.93;3.00;;;;;;;11.61;80.27;99841.94;5065386;28;20627;-75
2021/05/15 04:25:49;;;;;;;7.27;3.23;;;;;;;11.62;80.29;99845.47;5065013;28;20200;-75
2021/05/15 04:28:16;;;;;;;3.77;2.70;;;;;;;11.64;80.04;99849.75;5063479;28;20615;-77
2021/05/15 04:30:44;;;;;;;5.43;3.40;;;;;;;11.54;80.21;99831.84;5056715;28;20778;-75
2021/05/15 04:33:10;;;;;;;5.07;3.13;;;;;;;11.37;79.57;99801.06;5062749;28;20545;-75
2021/05/15 04:35:37;;;;;;;6.30;3.33;;;;;;;11.61;80.37;99858.06;5065456;28;20262;-70
2021/05/15 04:38:05;;;;;;;6.50;3.33;;;;;;;11.71;79.30;99850.94;5077121;28;20202;-75
2021/05/15 04:40:32;;;;;;;5.37;3.50;;;;;;;11.80;79.53;99849.28;5063381;28;20189;-70
2021/05/15 04:42:59;;;;;;;55.20;27.33;;;;;;;11.74;80.12;99853.34;5064894;28;20739;-70
2021/05/15 04:45:28;;;;;;;42.37;24.40;;;;;;;11.61;80.88;99838.38;5062409;28;21014;-70
2021/05/15 04:47:55;;;;;;;11.90;8.97;;;;;;;11.59;80.61;99841.22;5064535;28;20614;-71
2021/05/15 04:50:22;;;;;;;8.47;4.23;;;;;;;11.69;80.09;99844.81;5076287;28;20209;-70
2021/05/15 04:52:48;;;;;;;6.60;4.30;;;;;;;11.79;80.34;99844.91;5064077;28;20215;-70
2021/05/15 04:55:14;;;;;;;5.87;4.17;;;;;;;11.91;80.09;99841.13;5062336;28;20202;-70
2021/05/15 04:57:41;;;;;;;8.00;6.23;;;;;;;11.99;79.51;99843.16;5097232;28;20207;-70
2021/05/15 05:00:08;;;;;;;9.70;5.17;;;;;;;11.93;80.67;99836.47;5063084;28;20202;-71
2021/05/15 05:02:34;;;;;;;7.73;4.97;;;;;;;11.94;79.80;99840.88;5054435;28;20284;-71
2021/05/15 05:05:02;;;;;;;5.83;4.07;;;;;;;12.05;80.03;99840.78;5062905;28;20691;-71
2021/05/15 05:07:28;;;;;;;6.57;4.50;;;;;;;12.18;79.58;99845.06;5062407;28;20330;-76
2021/05/15 05:09:55;;;;;;;5.53;3.33;;;;;;;12.20;79.14;99843.06;5065391;28;20211;-76
2021/05/15 05:12:21;;;;;;;4.57;3.17;;;;;;;12.22;79.48;99844.66;5065979;28;20290;-77
2021/05/15 05:14:47;;;;;;;5.07;3.30;;;;;;;12.13;79.81;99846.31;5066370;28;20293;-77
2021/05/15 05:17:14;;;;;;;5.83;3.93;;;;;;;12.17;79.85;99848.75;5069406;28;20675;-77
2021/05/15 05:19:40;;;;;;;11.20;9.40;;;;;;;12.00;80.15;99794.59;5066281;28;20282;-78
2021/05/15 05:22:08;;;;;;;6.53;4.30;;;;;;;12.40;79.83;99834.94;5063975;28;20196;-78
2021/05/15 05:24:36;;;;;;;5.40;3.37;;;;;;;12.57;79.40;99846.88;5061840;28;20200;-78
2021/05/15 05:27:03;;;;;;;3.93;3.07;;;;;;;12.48;79.16;99852.22;5070940;28;20691;-78
2021/05/15 05:29:29;;;;;;;5.70;3.43;;;;;;;12.43;78.76;99849.97;5066365;28;20331;-77
2021/05/15 05:31:56;;;;;;;6.17;3.40;;;;;;;12.19;79.11;99838.69;5060863;28;20686;-78
2021/05/15 05:34:23;;;;;;;8.37;3.20;;;;;;;12.30;79.27;99849.38;5064903;28;20220;-78
2021/05/15 05:36:49;;;;;;;6.87;3.40;;;;;;;12.15;78.88;99842.66;5065984;28;20214;-77
2021/05/15 05:39:18;;;;;;;4.50;3.07;;;;;;;12.16;78.95;99852.41;5066974;28;20287;-78
2021/05/15 05:41:45;;;;;;;4.97;3.20;;;;;;;12.11;79.47;99853.69;5074758;28;20221;-78
2021/05/15 05:44:12;;;;;;;5.30;3.73;;;;;;;12.10;79.47;99860.06;5071864;28;20584;-78
2021/05/15 05:46:38;;;;;;;5.13;3.20;;;;;;;12.19;78.96;99847.59;5063735;28;20290;-77
2021/05/15 05:49:05;;;;;;;4.87;3.17;;;;;;;12.38;78.16;99860.28;5063485;28;20248;-78
2021/05/15 05:51:32;;;;;;;4.70;3.23;;;;;;;12.25;79.01;99855.16;5070871;28;20295;-78
2021/05/15 05:53:58;;;;;;;4.17;3.10;;;;;;;12.31;79.30;99854.63;5065206;28;20586;-79
2021/05/15 05:56:26;;;;;;;5.50;3.47;;;;;;;12.09;78.90;99826.06;5067398;28;20341;-79
2021/05/15 05:58:52;;;;;;;3.53;2.83;;;;;;;12.39;79.60;99851.22;5065451;28;20230;-78
2021/05/15 06:01:19;;;;;;;4.10;3.20;;;;;;;12.43;80.42;99855.34;5071326;28;20232;-78
2021/05/15 06:03:45;;;;;;;6.67;3.47;;;;;;;12.44;80.00;99857.03;5065807;28;20204;-78
2021/05/15 06:06:12;;;;;;;5.13;3.50;;;;;;;12.25;79.89;99811.25;5065183;28;20600;-79
2021/05/15 06:08:39;;;;;;;4.90;3.50;;;;;;;12.73;79.63;99860.66;5063796;28;20256;-79
2021/05/15 06:11:06;;;;;;;6.27;3.27;;;;;;;12.83;79.25;99865.19;5066423;28;20707;-80
2021/05/15 06:13:33;;;;;;;4.57;3.40;;;;;;;12.46;78.17;99803.06;5073335;28;20263;-79
2021/05/15 06:16:00;;;;;;;4.17;3.20;;;;;;;13.14;76.56;99863.22;5062188;28;20284;-78
2021/05/15 06:18:27;;;;;;;5.13;3.33;;;;;;;13.30;76.87;99859.00;5066887;28;20236;-78
2021/05/15 06:20:54;;;;;;;5.53;3.17;;;;;;;13.45;77.08;99866.66;5070976;28;20213;-78
2021/05/15 06:23:20;;;;;;;3.27;2.80;;;;;;;13.45;76.28;99839.66;5070292;28;20201;-71
2021/05/15 06:25:47;;;;;;;3.37;2.80;;;;;;;13.67;76.40;99858.22;5066841;28;20338;-70
2021/05/15 06:28:15;;;;;;;5.03;3.47;;;;;;;13.69;75.68;99864.34;5057566;28;20234;-71
2021/05/15 06:30:45;;;;;;;4.73;2.60;;;;;;;13.80;76.05;99853.38;5066028;28;20290;-78
2021/05/15 06:33:12;;;;;;;3.80;2.90;;;;;;;13.68;75.06;99795.19;5062010;28;20189;-70
2021/05/15 06:35:38;;;;;;;5.73;3.37;;;;;;;14.12;75.69;99850.28;5061965;28;20726;-70
2021/05/15 06:38:05;;;;;;;2.97;2.53;;;;;;;13.83;75.58;99800.97;5062976;28;20679;-71
2021/05/15 06:40:32;;;;;;;3.70;2.80;;;;;;;14.29;75.17;99845.94;5065896;28;20217;-69
2021/05/15 06:42:58;;;;;;;3.27;2.87;;;;;;;14.22;73.67;99836.72;5073655;28;20271;-70
2021/05/15 06:45:25;;;;;;;5.20;2.60;;;;;;;14.28;74.04;99842.38;5061191;28;20209;-69
2021/05/15 06:47:54;;;;;;;2.73;2.43;;;;;;;14.57;72.79;99850.34;5063705;28;20752;-73
2021/05/15 06:50:20;;;;;;;2.47;2.20;;;;;;;14.65;71.81;99846.88;5065421;28;20286;-70
2021/05/15 06:52:47;;;;;;;2.67;2.40;;;;;;;14.75;71.63;99846.84;5064858;28;20201;-70
2021/05/15 06:55:13;;;;;;;2.53;2.30;;;;;;;14.78;71.81;99847.38;5066945;28;20251;-72
2021/05/15 06:57:40;;;;;;;3.90;2.97;;;;;;;14.38;69.77;99834.22;5062426;28;20240;-70
2021/05/15 07:00:08;;;;;;;2.20;2.00;;;;;;;14.44;70.89;99852.56;5068425;28;20654;-71
2021/05/15 07:02:35;;;;;;;2.40;2.20;;;;;;;14.41;71.94;99855.56;5064899;28;20201;-71
2021/05/15 07:05:03;;;;;;;3.03;2.30;;;;;;;14.58;72.16;99854.75;5062379;28;20285;-71
2021/05/15 07:07:30;;;;;;;3.20;1.97;;;;;;;14.81;71.64;99851.63;5063513;28;20288;-71
2021/05/15 07:09:56;;;;;;;3.43;2.10;;;;;;;15.12;70.10;99854.81;5067565;28;20200;-71
2021/05/15 07:12:24;;;;;;;2.20;1.93;;;;;;;15.05;69.19;99834.81;5063119;28;20224;-71
2021/05/15 07:15:01;;;;;;;2.83;1.97;;;;;;;15.46;68.96;99855.78;5068461;28;20240;-71
2021/05/15 07:17:31;;;;;;;2.57;2.20;;;;;;;15.72;67.52;99861.25;5078926;28;20205;-71
2021/05/15 07:19:58;;;;;;;2.40;2.20;;;;;;;15.25;67.71;99859.81;5065140;28;20671;-71
2021/05/15 07:22:26;;;;;;;3.30;1.80;;;;;;;15.25;68.97;99854.41;5062740;28;20197;-70
2021/05/15 07:24:52;;;;;;;2.27;2.03;;;;;;;15.33;69.85;99852.63;5065496;28;20239;-71
2021/05/15 07:27:20;;;;;;;1.97;1.87;;;;;;;14.98;70.60;99848.06;5069551;28;20200;-71
2021/05/15 07:29:48;;;;;;;4.17;2.17;;;;;;;15.09;70.27;99855.13;5065294;28;20225;-72
2021/05/15 07:32:15;;;;;;;2.20;2.00;;;;;;;15.22;68.17;99856.41;5066925;28;20838;-71
2021/05/15 07:34:41;;;;;;;2.57;2.10;;;;;;;15.29;68.90;99861.19;5063893;28;20220;-71
2021/05/15 07:37:09;;;;;;;2.53;2.03;;;;;;;15.24;67.75;99853.56;5066046;28;20678;-71
2021/05/15 07:39:37;;;;;;;2.70;2.30;;;;;;;15.26;67.94;99858.81;5065906;28;20656;-71
2021/05/15 07:42:04;;;;;;;2.90;1.90;;;;;;;15.38;69.04;99863.00;5060676;28;20221;-71
2021/05/15 07:44:30;;;;;;;3.03;2.10;;;;;;;15.61;67.44;99852.50;5063836;28;20197;-71
2021/05/15 07:46:57;;;;;;;2.30;2.00;;;;;;;15.60;65.15;99848.97;5067307;28;20230;-72
2021/05/15 07:49:23;;;;;;;2.60;2.10;;;;;;;15.71;64.80;99846.00;5064354;28;20221;-71
2021/05/15 07:51:52;;;;;;;2.20;2.00;;;;;;;15.87;67.00;99845.25;5070973;28;20243;-71
2021/05/15 07:54:18;;;;;;;2.13;1.80;;;;;;;15.97;66.04;99826.19;5068269;28;20200;-71
2021/05/15 07:56:46;;;;;;;2.53;2.07;;;;;;;16.02;65.35;99842.81;5064650;28;20229;-72
2021/05/15 07:59:12;;;;;;;2.00;1.80;;;;;;;16.21;64.75;99849.84;5071809;28;20558;-77
2021/05/15 08:01:39;;;;;;;2.40;1.90;;;;;;;15.97;63.69;99840.59;5076530;28;20284;-78
2021/05/15 08:04:06;;;;;;;3.10;2.00;;;;;;;15.85;64.89;99831.03;5072378;28;20287;-77
2021/05/15 08:06:33;;;;;;;3.87;1.90;;;;;;;16.04;65.49;99857.03;5068031;28;20707;-77
2021/05/15 08:09:00;;;;;;;1.93;1.70;;;;;;;15.94;65.66;99840.06;5069512;28;20304;-77
2021/05/15 08:11:26;;;;;;;1.90;1.80;;;;;;;16.00;66.23;99842.13;5064901;28;20282;-77
2021/05/15 08:13:53;;;;;;;1.80;1.70;;;;;;;16.13;66.23;99847.94;5064596;28;20312;-78
2021/05/15 08:16:20;;;;;;;2.33;2.00;;;;;;;15.83;66.17;99827.63;5064084;28;20221;-78
2021/05/15 08:18:46;;;;;;;3.43;2.20;;;;;;;15.92;65.86;99839.34;5062565;28;20249;-76
2021/05/15 08:21:13;;;;;;;2.00;1.90;;;;;;;16.15;64.54;99832.38;5064059;28;20205;-71
2021/05/15 08:23:40;;;;;;;2.87;1.90;;;;;;;16.18;64.21;99842.03;5066654;28;20208;-70
2021/05/15 08:26:10;;;;;;;2.83;1.77;;;;;;;16.47;63.22;99842.50;5065597;28;20246;-70
2021/05/15 08:28:39;;;;;;;1.77;1.67;;;;;;;16.73;64.64;99828.88;5062018;28;20217;-70
2021/05/15 08:31:08;;;;;;;1.93;1.80;;;;;;;17.25;62.49;99834.03;5062814;28;20212;-69
2021/05/15 08:33:34;;;;;;;3.50;1.60;;;;;;;17.30;61.17;99839.81;5061493;28;20197;-69
2021/05/15 08:36:01;;;;;;;1.80;1.70;;;;;;;17.17;61.31;99839.47;5065381;28;20193;-69
2021/05/15 08:38:27;;;;;;;1.80;1.70;;;;;;;17.08;61.24;99839.44;5064163;28;20217;-70
2021/05/15 08:40:53;;;;;;;1.70;1.60;;;;;;;16.95;61.21;99836.38;5063744;28;20339;-70
2021/05/15 08:43:21;;;;;;;2.17;1.80;;;;;;;16.73;60.45;99837.00;5067887;28;20283;-70
2021/05/15 08:45:51;;;;;;;1.70;1.60;;;;;;;16.70;62.00;99849.03;5065122;28;20200;-70
2021/05/15 08:48:20;;;;;;;2.10;1.90;;;;;;;16.78;60.82;99853.63;5060773;28;20870;-70
2021/05/15 08:50:47;;;;;;;1.60;1.50;;;;;;;16.37;61.79;99853.47;5065235;28;20239;-70
2021/05/15 08:53:15;;;;;;;2.20;1.87;;;;;;;16.18;62.23;99850.16;5064724;28;20699;-70
2021/05/15 08:55:42;;;;;;;1.87;1.77;;;;;;;15.73;63.77;99835.88;5065087;28;20216;-69
2021/05/15 08:58:08;;;;;;;2.93;1.60;;;;;;;15.57;64.64;99860.06;5057862;28;20197;-69
2021/05/15 09:00:37;;;;;;;2.30;1.97;;;;;;;15.63;66.67;99856.78;5094263;28;20202;-70
2021/05/15 09:03:05;;;;;;;2.20;1.90;;;;;;;15.32;67.41;99844.69;5053523;28;20304;-70
2021/05/15 09:05:37;;;;;;;4.13;1.67;;;;;;;15.18;67.98;99860.44;5063523;28;20240;-69
2021/05/15 09:08:09;;;;;;;2.00;1.90;;;;;;;15.04;67.61;99855.59;5060006;28;20224;-70
2021/05/15 09:10:39;;;;;;;6.07;1.90;;;;;;;14.83;69.15;99846.91;5063727;28;20228;-70
2021/05/15 09:13:12;;;;;;;1.70;1.60;;;;;;;14.55;69.57;99852.34;5068617;28;20628;-70
2021/05/15 09:15:42;;;;;;;2.40;2.07;;;;;;;14.56;69.96;99862.16;5065268;28;20204;-70
2021/05/15 09:18:13;;;;;;;1.80;1.53;;;;;;;14.62;70.70;99865.25;5066913;28;20198;-71
2021/05/15 09:20:42;;;;;;;2.17;1.73;;;;;;;14.29;70.72;99856.72;5063613;28;20258;-72
2021/05/15 09:23:16;;;;;;;2.27;2.07;;;;;;;14.30;71.43;99861.97;5064525;28;20297;-72
2021/05/15 09:25:45;;;;;;;2.03;1.83;;;;;;;13.94;72.13;99863.69;5059329;28;20288;-73
2021/05/15 09:28:13;;;;;;;2.33;1.80;;;;;;;13.83;74.56;99868.44;5063607;28;20209;-72
2021/05/15 09:30:40;;;;;;;2.20;2.00;;;;;;;13.67;75.29;99866.31;5060008;28;20209;-72
2021/05/15 09:33:13;;;;;;;2.27;1.93;;;;;;;13.46;75.33;99841.38;5059941;28;20196;-72
2021/05/15 09:35:41;;;;;;;3.70;2.10;;;;;;;13.66;75.54;99872.72;5057428;28;20612;-72
2021/05/15 09:38:09;;;;;;;2.33;2.00;;;;;;;13.63;75.72;99870.31;5059958;28;20213;-72
2021/05/15 09:40:40;;;;;;;5.00;2.20;;;;;;;13.92;74.89;99867.53;5054073;28;20204;-74
2021/05/15 09:43:09;;;;;;;2.93;2.00;;;;;;;13.92;74.58;99875.63;5063343;28;20198;-72
2021/05/15 09:45:39;;;;;;;2.20;2.00;;;;;;;14.14;72.32;99874.44;5089531;28;20205;-73
2021/05/15 09:48:09;;;;;;;3.17;1.83;;;;;;;14.33;71.57;99874.34;5060446;28;20197;-74
2021/05/15 09:50:38;;;;;;;2.83;2.23;;;;;;;14.45;72.21;99870.47;5061114;28;20301;-72
2021/05/15 09:53:10;;;;;;;3.23;2.37;;;;;;;14.63;70.71;99869.66;5063803;28;20284;-72
2021/05/15 09:55:39;;;;;;;8.00;2.67;;;;;;;14.78;70.51;99873.56;5063386;28;20738;-72
2021/05/15 09:58:08;;;;;;;3.77;2.33;;;;;;;14.92;71.73;99878.44;5063258;28;20372;-77
2021/05/15 10:00:41;;;;;;;4.00;2.23;;;;;;;15.04;71.43;99862.84;5059585;28;20567;-79
2021/05/15 10:03:20;;;;;;;2.80;2.47;;;;;;;15.32;70.49;99877.16;5061461;28;20793;-78
2021/05/15 10:05:58;;;;;;;3.27;2.20;;;;;;;15.39;72.30;99870.94;5059972;28;20279;-79
2021/05/15 10:08:27;;;;;;;2.67;1.70;;;;;;;15.48;70.30;99871.84;5065540;28;20234;-78
2021/05/15 10:10:55;;;;;;;1.20;1.10;;;;;;;15.50;70.08;99877.97;5067618;28;20724;-78
2021/05/15 10:13:24;;;;;;;1.57;1.40;;;;;;;15.29;71.65;99866.59;5065648;28;20247;-76
2021/05/15 10:15:51;;;;;;;1.70;1.60;;;;;;;14.88;72.29;99806.75;5065560;28;20205;-77
2021/05/15 10:18:19;;;;;;;1.60;1.50;;;;;;;15.30;70.90;99861.03;5060985;28;20197;-77
2021/05/15 10:20:48;;;;;;;3.03;1.93;;;;;;;15.52;70.14;99865.13;5064183;28;20351;-77
2021/05/15 10:23:22;;;;;;;1.43;1.33;;;;;;;15.41;70.79;99838.31;5064063;28;20959;-78
2021/05/15 10:26:01;;;;;;;0.90;0.90;;;;;;;15.71;69.26;99851.44;5064468;28;20507;-78
2021/05/15 10:28:30;;;;;;;0.90;0.90;;;;;;;15.88;67.79;99859.63;5064406;28;20627;-78
2021/05/15 10:31:11;;;;;;;0.90;0.90;;;;;;;15.84;66.52;99868.09;5064279;28;20216;-71
2021/05/15 10:33:39;;;;;;;1.00;0.93;;;;;;;15.57;64.43;99841.13;5061312;28;20219;-71
2021/05/15 10:36:18;;;;;;;0.70;0.70;;;;;;;15.52;63.02;99835.34;5065201;28;21141;-71
2021/05/15 10:38:46;;;;;;;0.87;0.60;;;;;;;15.98;63.50;99860.41;5064084;28;20193;-71
2021/05/15 10:41:17;;;;;;;0.50;0.50;;;;;;;15.90;61.08;99861.19;5059810;28;20746;-69
2021/05/15 10:43:45;;;;;;;0.40;0.40;;;;;;;15.96;62.27;99865.97;5070903;28;20201;-70
2021/05/15 10:46:21;;;;;;;0.47;0.47;;;;;;;15.87;59.22;99880.44;5060582;28;20194;-71
2021/05/15 10:48:58;;;;;;;0.47;0.47;;;;;;;16.13;61.68;99870.47;5065457;28;20830;-71
2021/05/15 10:51:44;;;;;;;1.50;0.50;;;;;;;16.12;61.36;99854.38;5060425;28;20212;-70
2021/05/15 10:54:14;;;;;;;0.50;0.50;;;;;;;16.03;59.42;99871.59;5073750;28;20254;-70
2021/05/15 10:56:51;;;;;;;0.40;0.40;;;;;;;16.16;60.85;99866.56;5065641;28;20312;-77
2021/05/15 10:59:20;;;;;;;1.57;1.00;;;;;;;16.14;60.36;99864.03;5068366;28;20254;-72
2021/05/15 11:01:54;;;;;;;0.60;0.60;;;;;;;16.27;60.35;99863.59;5067766;28;20219;-72
2021/05/15 11:04:25;;;;;;;0.50;0.50;;;;;;;16.33;60.56;99862.09;5070677;28;20277;-72
2021/05/15 11:07:00;;;;;;;0.70;0.70;;;;;;;16.35;61.12;99866.34;5060784;28;20517;-73
2021/05/15 11:09:31;;;;;;;0.90;0.90;;;;;;;16.50;62.35;99863.84;5063699;28;20224;-73
2021/05/15 11:12:13;;;;;;;0.70;0.70;;;;;;;16.74;60.94;99865.81;5056481;28;20229;-72
2021/05/15 11:14:43;;;;;;;0.63;0.63;;;;;;;17.02;59.70;99867.25;5054296;28;20529;-76
2021/05/15 11:17:29;;;;;;;0.60;0.60;;;;;;;16.88;58.94;99862.50;5061239;28;20201;-76
2021/05/15 11:19:59;;;;;;;0.63;0.63;;;;;;;17.14;59.13;99866.91;5054464;28;20751;-66
2021/05/15 11:22:38;;;;;;;0.60;0.60;;;;;;;17.12;59.30;99869.81;5061770;28;20200;-68
2021/05/15 11:25:20;;;;;;;0.70;0.70;;;;;;;16.81;57.92;99866.84;5060673;28;20221;-67
2021/05/15 11:27:50;;;;;;;0.80;0.80;;;;;;;16.65;58.91;99869.50;5064073;28;20658;-67
2021/05/15 11:30:21;;;;;;;0.60;0.60;;;;;;;16.67;59.02;99829.56;5066240;28;20244;-67
2021/05/15 11:33:03;;;;;;;0.70;0.70;;;;;;;17.06;58.76;99865.03;5065028;28;20200;-67
2021/05/15 11:35:36;;;;;;;0.70;0.70;;;;;;;16.63;58.00;99868.81;5065138;28;20193;-67
2021/05/15 11:38:09;;;;;;;0.70;0.70;;;;;;;16.55;57.14;99866.94;5064657;28;20213;-67